createdAt,value
2023-02-08T00:00:32.747Z,1031.220072176
2023-02-08T00:01:32.775Z,1031.220072176
2023-02-08T00:02:32.838Z,1031.4232549039998
2023-02-08T00:03:32.843Z,1031.32166354
2023-02-08T00:04:32.812Z,1031.32166354
2023-02-08T00:05:32.761Z,1031.220072176
2023-02-08T00:06:32.748Z,1031.220072176
2023-02-08T00:07:32.775Z,1031.220072176
2023-02-08T00:08:42.810Z,1031.32166354
2023-02-08T00:09:46.788Z,1031.1184808120001
2023-02-08T00:10:50.907Z,1031.220072176
2023-02-08T00:11:54.797Z,1031.6264376319998
2023-02-08T00:12:58.789Z,1031.4232549039998
2023-02-08T00:14:02.804Z,1031.6264376319998
2023-02-08T00:15:06.781Z,1031.728028996
2023-02-08T00:16:10.842Z,1031.6264376319998
2023-02-08T00:17:14.949Z,1031.82962036
2023-02-08T00:18:18.779Z,1031.6264376319998
2023-02-08T00:19:22.804Z,1031.6264376319998
2023-02-08T00:20:26.833Z,1031.524846268
2023-02-08T00:21:30.784Z,1031.6264376319998
2023-02-08T00:22:31.882Z,1031.4232549039998
2023-02-08T00:23:31.813Z,1031.524846268
2023-02-08T00:24:31.780Z,1031.524846268
2023-02-08T00:25:31.769Z,1031.6264376319998
2023-02-08T00:26:31.755Z,1031.4232549039998
2023-02-08T00:27:31.749Z,1031.4232549039998
2023-02-08T00:28:32.017Z,1031.32166354
2023-02-08T00:29:31.759Z,1031.524846268
2023-02-08T00:30:31.891Z,1031.6264376319998
2023-02-08T00:31:31.871Z,1031.4232549039998
2023-02-08T00:32:31.760Z,1031.4232549039998
2023-02-08T00:33:31.777Z,1031.4232549039998
2023-02-08T00:34:31.776Z,1031.32166354
2023-02-08T00:35:31.803Z,1031.524846268
2023-02-08T00:36:31.791Z,1031.4232549039998
2023-02-08T00:37:31.746Z,1031.4232549039998
2023-02-08T00:38:31.784Z,1031.6264376319998
2023-02-08T00:39:31.746Z,1031.1184808120001
2023-02-08T00:40:31.750Z,1031.4232549039998
2023-02-08T00:41:31.769Z,1031.220072176
2023-02-08T00:42:31.748Z,1031.524846268
2023-02-08T00:43:31.747Z,1031.32166354
2023-02-08T00:44:31.769Z,1031.32166354
2023-02-08T00:45:31.738Z,1031.4232549039998
2023-02-08T00:46:31.895Z,1031.6264376319998
2023-02-08T00:47:31.778Z,1031.524846268
2023-02-08T00:48:47.173Z,1031.220072176
2023-02-08T00:49:31.759Z,1031.32166354
2023-02-08T00:50:31.764Z,1031.32166354
2023-02-08T00:51:31.724Z,1031.220072176
2023-02-08T00:52:31.754Z,1031.220072176
2023-02-08T00:53:31.766Z,1031.220072176
2023-02-08T00:54:31.784Z,1031.1184808120001
2023-02-08T00:55:31.744Z,1031.1184808120001
2023-02-08T00:56:39.909Z,1031.1184808120001
2023-02-08T00:57:31.773Z,1031.220072176
2023-02-08T00:58:31.790Z,1031.220072176
2023-02-08T00:59:31.758Z,1031.220072176
2023-02-08T01:00:31.935Z,1031.016889448
2023-02-08T01:01:31.758Z,1031.32166354
2023-02-08T01:02:31.811Z,1031.32166354
2023-02-08T01:03:31.720Z,1031.4232549039998
2023-02-08T01:04:31.801Z,1031.220072176
2023-02-08T01:05:31.782Z,1031.32166354
2023-02-08T01:06:31.808Z,1031.220072176
2023-02-08T01:07:31.731Z,1031.32166354
2023-02-08T01:08:31.745Z,1031.1184808120001
2023-02-08T01:09:31.725Z,1031.32166354
2023-02-08T01:10:31.761Z,1031.220072176
2023-02-08T01:11:31.755Z,1031.1184808120001
2023-02-08T01:12:32.791Z,1031.32166354
2023-02-08T01:13:31.778Z,1031.32166354
2023-02-08T01:14:31.775Z,1031.220072176
2023-02-08T01:15:31.737Z,1031.32166354
2023-02-08T01:16:31.907Z,1031.220072176
2023-02-08T01:17:31.748Z,1031.016889448
2023-02-08T01:18:31.769Z,1031.524846268
2023-02-08T01:19:31.750Z,1031.4232549039998
2023-02-08T01:20:33.446Z,1031.220072176
2023-02-08T01:21:31.760Z,1031.32166354
2023-02-08T01:22:31.744Z,1031.220072176
2023-02-08T01:23:31.823Z,1031.1184808120001
2023-02-08T01:24:31.736Z,1031.1184808120001
2023-02-08T01:25:31.762Z,1031.1184808120001
2023-02-08T01:26:31.733Z,1031.016889448
2023-02-08T01:27:31.766Z,1031.220072176
2023-02-08T01:28:31.762Z,1031.016889448
2023-02-08T01:29:31.776Z,1031.1184808120001
2023-02-08T01:30:31.752Z,1031.220072176
2023-02-08T01:31:31.794Z,1031.32166354
2023-02-08T01:32:31.806Z,1031.016889448
2023-02-08T01:33:31.740Z,1031.1184808120001
2023-02-08T01:34:31.731Z,1031.32166354
2023-02-08T01:35:31.792Z,1031.32166354
2023-02-08T01:36:31.795Z,1031.220072176
2023-02-08T01:37:31.812Z,1031.1184808120001
2023-02-08T01:38:31.716Z,1031.32166354
2023-02-08T01:39:31.751Z,1031.220072176
2023-02-08T01:40:31.824Z,1031.1184808120001
2023-02-08T01:41:31.830Z,1030.9152980840001
2023-02-08T01:42:31.857Z,1030.9152980840001
2023-02-08T01:43:31.827Z,1031.220072176
2023-02-08T01:44:31.849Z,1031.016889448
2023-02-08T01:45:32.027Z,1031.016889448
2023-02-08T01:46:31.917Z,1031.016889448
2023-02-08T01:47:31.893Z,1030.81370672
2023-02-08T01:48:31.893Z,1031.016889448
2023-02-08T01:49:31.905Z,1031.016889448
2023-02-08T01:50:31.936Z,1031.016889448
2023-02-08T01:51:31.853Z,1030.81370672
2023-02-08T01:52:31.913Z,1031.016889448
2023-02-08T01:53:31.885Z,1031.016889448
2023-02-08T01:54:31.869Z,1031.016889448
2023-02-08T01:55:31.876Z,1030.9152980840001
2023-02-08T01:56:31.761Z,1031.016889448
2023-02-08T01:57:31.777Z,1031.1184808120001
2023-02-08T01:58:31.749Z,1031.220072176
2023-02-08T01:59:31.761Z,1031.220072176
2023-02-08T02:00:31.725Z,1030.9152980840001
2023-02-08T02:01:31.823Z,1030.81370672
2023-02-08T02:02:31.743Z,1030.9152980840001
2023-02-08T02:03:31.793Z,1030.9152980840001
2023-02-08T02:04:31.820Z,1030.9152980840001
2023-02-08T02:05:31.756Z,1030.712115356
2023-02-08T02:06:31.733Z,1030.81370672
2023-02-08T02:07:31.747Z,1030.81370672
2023-02-08T02:08:31.731Z,1030.9152980840001
2023-02-08T02:09:31.745Z,1030.9152980840001
2023-02-08T02:10:31.722Z,1031.016889448
2023-02-08T02:11:31.743Z,1031.220072176
2023-02-08T02:12:31.722Z,1031.016889448
2023-02-08T02:13:31.792Z,1030.9152980840001
2023-02-08T02:14:31.739Z,1031.016889448
2023-02-08T02:15:31.783Z,1031.016889448
2023-02-08T02:16:31.826Z,1031.016889448
2023-02-08T02:17:31.763Z,1031.1184808120001
2023-02-08T02:18:31.740Z,1031.016889448
2023-02-08T02:19:34.814Z,1031.016889448
2023-02-08T02:20:31.719Z,1030.9152980840001
2023-02-08T02:21:31.731Z,1031.1184808120001
2023-02-08T02:22:31.757Z,1031.32166354
2023-02-08T02:23:31.742Z,1031.016889448
2023-02-08T02:24:31.736Z,1031.016889448
2023-02-08T02:25:31.750Z,1031.220072176
2023-02-08T02:26:31.724Z,1031.1184808120001
2023-02-08T02:27:31.784Z,1031.1184808120001
2023-02-08T02:28:31.723Z,1031.32166354
2023-02-08T02:29:31.753Z,1031.220072176
2023-02-08T02:30:31.769Z,1031.32166354
2023-02-08T02:31:31.770Z,1031.1184808120001
2023-02-08T02:32:31.735Z,1031.220072176
2023-02-08T02:33:31.778Z,1031.32166354
2023-02-08T02:34:31.716Z,1031.220072176
2023-02-08T02:35:31.801Z,1031.32166354
2023-02-08T02:36:31.749Z,1031.220072176
2023-02-08T02:37:31.724Z,1031.32166354
2023-02-08T02:38:31.727Z,1031.32166354
2023-02-08T02:39:31.785Z,1031.1184808120001
2023-02-08T02:40:31.722Z,1031.32166354
2023-02-08T02:41:31.870Z,1031.4232549039998
2023-02-08T02:42:31.752Z,1031.32166354
2023-02-08T02:43:31.745Z,1031.32166354
2023-02-08T02:44:31.736Z,1031.220072176
2023-02-08T02:45:31.822Z,1031.016889448
2023-02-08T02:46:31.750Z,1031.1184808120001
2023-02-08T02:47:31.751Z,1031.4232549039998
2023-02-08T02:48:31.723Z,1031.32166354
2023-02-08T02:49:31.748Z,1031.1184808120001
2023-02-08T02:50:31.750Z,1031.32166354
2023-02-08T02:51:31.809Z,1031.1184808120001
2023-02-08T02:52:31.738Z,1031.220072176
2023-02-08T02:53:31.729Z,1031.1184808120001
2023-02-08T02:54:31.751Z,1031.1184808120001
2023-02-08T02:55:31.817Z,1031.1184808120001
2023-02-08T02:56:31.811Z,1031.220072176
2023-02-08T02:57:31.726Z,1031.1184808120001
2023-02-08T02:58:31.716Z,1031.016889448
2023-02-08T02:59:31.753Z,1031.016889448
2023-02-08T03:00:31.716Z,1031.1184808120001
2023-02-08T03:01:31.793Z,1031.220072176
2023-02-08T03:02:31.745Z,1031.32166354
2023-02-08T03:03:31.837Z,1031.32166354
2023-02-08T03:04:31.850Z,1031.4232549039998
2023-02-08T03:05:31.735Z,1031.32166354
2023-02-08T03:06:31.806Z,1031.220072176
2023-02-08T03:07:31.766Z,1031.220072176
2023-02-08T03:08:31.755Z,1031.32166354
2023-02-08T03:09:31.770Z,1031.220072176
2023-02-08T03:10:31.736Z,1031.220072176
2023-02-08T03:11:31.892Z,1031.220072176
2023-02-08T03:12:31.737Z,1031.32166354
2023-02-08T03:13:31.859Z,1031.220072176
2023-02-08T03:14:31.744Z,1031.220072176
2023-02-08T03:15:31.770Z,1031.32166354
2023-02-08T03:16:31.830Z,1031.016889448
2023-02-08T03:17:31.737Z,1031.32166354
2023-02-08T03:18:31.898Z,1031.1184808120001
2023-02-08T03:19:31.793Z,1031.220072176
2023-02-08T03:20:31.922Z,1031.220072176
2023-02-08T03:21:31.917Z,1031.220072176
2023-02-08T03:22:31.723Z,1031.016889448
2023-02-08T03:23:31.801Z,1031.016889448
2023-02-08T03:24:31.746Z,1031.220072176
2023-02-08T03:25:31.766Z,1030.9152980840001
2023-02-08T03:26:31.774Z,1031.220072176
2023-02-08T03:27:31.832Z,1031.1184808120001
2023-02-08T03:28:31.959Z,1031.220072176
2023-02-08T03:29:31.797Z,1031.1184808120001
2023-02-08T03:30:31.934Z,1031.016889448
2023-02-08T03:31:32.030Z,1031.220072176
2023-02-08T03:32:31.898Z,1030.81370672
2023-02-08T03:33:31.973Z,1031.1184808120001
2023-02-08T03:34:31.902Z,1031.32166354
2023-02-08T03:35:31.808Z,1031.220072176
2023-02-08T03:36:31.742Z,1031.220072176
2023-02-08T03:37:31.871Z,1031.4232549039998
2023-02-08T03:38:31.798Z,1031.4232549039998
2023-02-08T03:39:31.863Z,1031.1184808120001
2023-02-08T03:40:31.852Z,1031.4232549039998
2023-02-08T03:41:31.855Z,1031.220072176
2023-02-08T03:42:31.807Z,1031.32166354
2023-02-08T03:43:31.848Z,1031.32166354
2023-02-08T03:44:32.007Z,1031.220072176
2023-02-08T03:45:31.744Z,1031.220072176
2023-02-08T03:46:31.768Z,1031.32166354
2023-02-08T03:47:31.918Z,1031.016889448
2023-02-08T03:48:31.893Z,1031.1184808120001
2023-02-08T03:49:31.860Z,1031.4232549039998
2023-02-08T03:50:31.907Z,1031.524846268
2023-02-08T03:51:31.957Z,1031.4232549039998
2023-02-08T03:52:31.859Z,1031.4232549039998
2023-02-08T03:53:31.715Z,1031.4232549039998
2023-02-08T03:54:31.749Z,1031.4232549039998
2023-02-08T03:55:31.752Z,1031.4232549039998
2023-02-08T03:56:31.729Z,1031.6264376319998
2023-02-08T03:57:31.704Z,1031.524846268
2023-02-08T03:58:31.775Z,1031.524846268
2023-02-08T03:59:31.738Z,1031.4232549039998
2023-02-08T04:00:31.851Z,1031.524846268
2023-02-08T04:01:31.773Z,1031.524846268
2023-02-08T04:02:31.827Z,1031.524846268
2023-02-08T04:03:31.714Z,1031.6264376319998
2023-02-08T04:04:31.739Z,1031.524846268
2023-02-08T04:05:31.762Z,1031.220072176
2023-02-08T04:06:31.790Z,1031.32166354
2023-02-08T04:07:31.734Z,1031.32166354
2023-02-08T04:08:31.730Z,1031.524846268
2023-02-08T04:09:31.721Z,1031.6264376319998
2023-02-08T04:10:31.752Z,1031.4232549039998
2023-02-08T04:11:31.706Z,1031.524846268
2023-02-08T04:12:31.733Z,1031.524846268
2023-02-08T04:13:31.698Z,1031.728028996
2023-02-08T04:14:31.759Z,1031.524846268
2023-02-08T04:15:31.736Z,1031.32166354
2023-02-08T04:16:31.749Z,1031.524846268
2023-02-08T04:17:31.796Z,1031.524846268
2023-02-08T04:18:32.689Z,1031.524846268
2023-02-08T04:19:38.676Z,1031.728028996
2023-02-08T04:20:42.807Z,1031.728028996
2023-02-08T04:21:46.669Z,1031.6264376319998
2023-02-08T04:22:50.662Z,1031.4232549039998
2023-02-08T04:23:54.708Z,1031.4232549039998
2023-02-08T04:24:58.655Z,1031.4232549039998
2023-02-08T04:26:02.672Z,1031.4232549039998
2023-02-08T04:27:06.658Z,1031.524846268
2023-02-08T04:28:10.704Z,1031.6264376319998
2023-02-08T04:29:14.685Z,1031.6264376319998
2023-02-08T04:30:18.684Z,1031.524846268
2023-02-08T04:31:22.781Z,1031.4232549039998
2023-02-08T04:32:26.648Z,1031.6264376319998
2023-02-08T04:33:30.755Z,1031.4232549039998
2023-02-08T04:34:31.768Z,1031.728028996
2023-02-08T04:35:31.757Z,1031.524846268
2023-02-08T04:36:32.738Z,1031.6264376319998
2023-02-08T04:37:46.686Z,1031.82962036
2023-02-08T04:38:50.701Z,1031.6264376319998
2023-02-08T04:39:54.701Z,1031.4232549039998
2023-02-08T04:40:58.645Z,1031.6264376319998
2023-02-08T04:42:03.416Z,1031.82962036
2023-02-08T04:43:06.706Z,1031.6264376319998
2023-02-08T04:44:10.620Z,1031.6264376319998
2023-02-08T04:45:14.752Z,1031.728028996
2023-02-08T04:46:18.774Z,1031.728028996
2023-02-08T04:47:22.683Z,1031.4232549039998
2023-02-08T04:48:26.663Z,1031.728028996
2023-02-08T04:49:30.641Z,1031.728028996
2023-02-08T04:50:31.738Z,1031.82962036
2023-02-08T04:51:31.768Z,1031.82962036
2023-02-08T04:52:31.740Z,1031.82962036
2023-02-08T04:53:31.706Z,1031.82962036
2023-02-08T04:54:47.540Z,1031.728028996
2023-02-08T04:55:31.748Z,1032.032803088
2023-02-08T04:56:31.715Z,1031.728028996
2023-02-08T04:57:31.726Z,1031.931211724
2023-02-08T04:58:31.760Z,1031.82962036
2023-02-08T04:59:31.804Z,1031.82962036
2023-02-08T05:00:31.785Z,1031.82962036
2023-02-08T05:01:31.793Z,1031.931211724
2023-02-08T05:02:31.793Z,1031.931211724
2023-02-08T05:03:31.758Z,1031.82962036
2023-02-08T05:04:31.695Z,1031.728028996
2023-02-08T05:05:31.764Z,1031.82962036
2023-02-08T05:06:31.788Z,1031.728028996
2023-02-08T05:07:31.751Z,1031.6264376319998
2023-02-08T05:08:31.727Z,1031.728028996
2023-02-08T05:09:31.701Z,1031.728028996
2023-02-08T05:10:31.749Z,1031.82962036
2023-02-08T05:11:31.844Z,1031.728028996
2023-02-08T05:12:31.795Z,1031.6264376319998
2023-02-08T05:13:31.714Z,1031.524846268
2023-02-08T05:14:31.771Z,1031.6264376319998
2023-02-08T05:15:31.780Z,1031.6264376319998
2023-02-08T05:16:31.777Z,1031.728028996
2023-02-08T05:17:31.772Z,1031.524846268
2023-02-08T05:18:31.722Z,1031.6264376319998
2023-02-08T05:19:31.759Z,1031.728028996
2023-02-08T05:20:31.792Z,1031.524846268
2023-02-08T05:21:31.737Z,1031.728028996
2023-02-08T05:22:31.731Z,1031.6264376319998
2023-02-08T05:23:31.681Z,1031.524846268
2023-02-08T05:24:31.730Z,1031.728028996
2023-02-08T05:25:31.740Z,1031.728028996
2023-02-08T05:26:31.722Z,1031.524846268
2023-02-08T05:27:31.714Z,1031.524846268
2023-02-08T05:28:31.709Z,1031.4232549039998
2023-02-08T05:29:32.770Z,1031.728028996
2023-02-08T05:30:31.718Z,1031.32166354
2023-02-08T05:31:31.822Z,1031.524846268
2023-02-08T05:32:31.716Z,1031.6264376319998
2023-02-08T05:33:31.753Z,1031.4232549039998
2023-02-08T05:34:31.864Z,1031.6264376319998
2023-02-08T05:35:31.762Z,1031.4232549039998
2023-02-08T05:36:31.741Z,1031.4232549039998
2023-02-08T05:37:32.309Z,1031.524846268
2023-02-08T05:38:31.707Z,1031.6264376319998
2023-02-08T05:39:31.742Z,1031.4232549039998
2023-02-08T05:40:31.725Z,1031.524846268
2023-02-08T05:41:31.734Z,1031.728028996
2023-02-08T05:42:31.727Z,1031.4232549039998
2023-02-08T05:43:31.744Z,1031.524846268
2023-02-08T05:44:31.711Z,1031.524846268
2023-02-08T05:45:31.737Z,1031.728028996
2023-02-08T05:46:31.763Z,1031.6264376319998
2023-02-08T05:47:31.774Z,1031.4232549039998
2023-02-08T05:48:31.726Z,1031.4232549039998
2023-02-08T05:49:31.697Z,1031.6264376319998
2023-02-08T05:50:31.759Z,1031.32166354
2023-02-08T05:51:31.768Z,1031.32166354
2023-02-08T05:52:31.694Z,1031.524846268
2023-02-08T05:53:31.709Z,1031.6264376319998
2023-02-08T05:54:31.703Z,1031.32166354
2023-02-08T05:55:31.751Z,1031.220072176
2023-02-08T05:56:31.724Z,1031.32166354
2023-02-08T05:57:33.598Z,1031.32166354
2023-02-08T05:58:31.732Z,1031.32166354
2023-02-08T05:59:31.808Z,1031.4232549039998
2023-02-08T06:00:31.744Z,1031.4232549039998
2023-02-08T06:01:31.794Z,1031.32166354
2023-02-08T06:02:31.738Z,1031.524846268
2023-02-08T06:03:31.730Z,1031.32166354
2023-02-08T06:04:31.706Z,1031.32166354
2023-02-08T06:05:31.932Z,1031.220072176
2023-02-08T06:06:31.750Z,1031.220072176
2023-02-08T06:07:31.727Z,1031.220072176
2023-02-08T06:08:31.723Z,1031.6264376319998
2023-02-08T06:09:31.732Z,1031.524846268
2023-02-08T06:10:31.771Z,1031.32166354
2023-02-08T06:11:31.749Z,1031.32166354
2023-02-08T06:12:31.720Z,1031.6264376319998
2023-02-08T06:13:31.736Z,1031.220072176
2023-02-08T06:14:31.716Z,1031.32166354
2023-02-08T06:15:31.740Z,1031.220072176
2023-02-08T06:16:31.776Z,1031.4232549039998
2023-02-08T06:17:31.740Z,1031.32166354
2023-02-08T06:18:31.756Z,1031.220072176
2023-02-08T06:19:31.736Z,1031.220072176
2023-02-08T06:20:31.776Z,1031.220072176
2023-02-08T06:21:31.717Z,1031.220072176
2023-02-08T06:22:31.707Z,1031.1184808120001
2023-02-08T06:23:31.692Z,1031.220072176
2023-02-08T06:24:31.692Z,1031.220072176
2023-02-08T06:25:31.740Z,1031.220072176
2023-02-08T06:26:32.020Z,1031.220072176
2023-02-08T06:27:31.753Z,1031.220072176
2023-02-08T06:28:31.771Z,1031.220072176
2023-02-08T06:29:31.709Z,1031.220072176
2023-02-08T06:30:31.736Z,1031.016889448
2023-02-08T06:31:31.826Z,1031.32166354
2023-02-08T06:32:31.774Z,1031.220072176
2023-02-08T06:33:31.726Z,1031.4232549039998
2023-02-08T06:34:31.717Z,1031.220072176
2023-02-08T06:35:31.751Z,1031.6264376319998
2023-02-08T06:36:31.713Z,1031.32166354
2023-02-08T06:37:31.736Z,1031.32166354
2023-02-08T06:38:31.704Z,1031.4232549039998
2023-02-08T06:39:31.729Z,1031.4232549039998
2023-02-08T06:40:31.690Z,1031.524846268
2023-02-08T06:41:31.713Z,1031.524846268
2023-02-08T06:42:31.759Z,1031.524846268
2023-02-08T06:43:31.722Z,1031.32166354
2023-02-08T06:44:31.720Z,1031.6264376319998
2023-02-08T06:45:31.761Z,1031.524846268
2023-02-08T06:46:31.712Z,1031.4232549039998
2023-02-08T06:47:31.728Z,1031.524846268
2023-02-08T06:48:31.691Z,1031.6264376319998
2023-02-08T06:49:31.704Z,1031.6264376319998
2023-02-08T06:50:31.801Z,1031.6264376319998
2023-02-08T06:51:31.727Z,1031.524846268
2023-02-08T06:52:31.702Z,1031.4232549039998
2023-02-08T06:53:31.690Z,1031.32166354
2023-02-08T06:54:32.752Z,1031.32166354
2023-02-08T06:55:31.755Z,1031.6264376319998
2023-02-08T06:56:31.691Z,1031.524846268
2023-02-08T06:57:31.713Z,1031.524846268
2023-02-08T06:58:31.736Z,1031.524846268
2023-02-08T06:59:31.707Z,1030.81370672
2023-02-08T07:00:31.702Z,1030.81370672
2023-02-08T07:01:31.903Z,1030.81370672
2023-02-08T07:02:31.725Z,1030.81370672
2023-02-08T07:03:31.707Z,1031.016889448
2023-02-08T07:04:31.700Z,1030.9152980840001
2023-02-08T07:05:31.831Z,1030.81370672
2023-02-08T07:06:31.732Z,1030.712115356
2023-02-08T07:07:31.754Z,1030.9152980840001
2023-02-08T07:08:31.714Z,1030.610523992
2023-02-08T07:09:31.720Z,1030.712115356
2023-02-08T07:10:31.719Z,1030.610523992
2023-02-08T07:11:31.775Z,1030.81370672
2023-02-08T07:12:31.681Z,1031.016889448
2023-02-08T07:13:31.769Z,1030.9152980840001
2023-02-08T07:14:31.719Z,1031.016889448
2023-02-08T07:15:31.743Z,1031.32166354
2023-02-08T07:16:31.752Z,1031.4232549039998
2023-02-08T07:17:31.720Z,1031.4232549039998
2023-02-08T07:18:31.715Z,1031.524846268
2023-02-08T07:19:31.722Z,1031.524846268
2023-02-08T07:20:31.754Z,1031.32166354
2023-02-08T07:21:31.681Z,1031.4232549039998
2023-02-08T07:22:31.758Z,1031.524846268
2023-02-08T07:23:31.684Z,1031.4232549039998
2023-02-08T07:24:31.668Z,1031.1184808120001
2023-02-08T07:25:31.732Z,1031.6264376319998
2023-02-08T07:26:31.725Z,1031.82962036
2023-02-08T07:27:31.755Z,1031.728028996
2023-02-08T07:28:31.752Z,1031.931211724
2023-02-08T07:29:31.694Z,1031.728028996
2023-02-08T07:30:31.722Z,1031.728028996
2023-02-08T07:31:31.802Z,1031.82962036
2023-02-08T07:32:34.372Z,1031.82962036
2023-02-08T07:33:31.783Z,1031.6264376319998
2023-02-08T07:34:31.752Z,1031.524846268
2023-02-08T07:35:31.687Z,1031.728028996
2023-02-08T07:36:31.726Z,1031.524846268
2023-02-08T07:37:31.755Z,1031.6264376319998
2023-02-08T07:38:31.699Z,1031.4232549039998
2023-02-08T07:39:31.733Z,1031.6264376319998
2023-02-08T07:40:31.741Z,1031.6264376319998
2023-02-08T07:41:31.742Z,1031.524846268
2023-02-08T07:42:31.736Z,1031.6264376319998
2023-02-08T07:43:31.801Z,1031.524846268
2023-02-08T07:44:31.731Z,1031.728028996
2023-02-08T07:45:31.779Z,1031.4232549039998
2023-02-08T07:46:31.686Z,1031.524846268
2023-02-08T07:47:31.706Z,1031.524846268
2023-02-08T07:48:31.739Z,1031.4232549039998
2023-02-08T07:49:31.730Z,1031.6264376319998
2023-02-08T07:50:31.708Z,1031.4232549039998
2023-02-08T07:51:31.716Z,1031.6264376319998
2023-02-08T07:52:31.690Z,1031.4232549039998
2023-02-08T07:53:31.711Z,1031.4232549039998
2023-02-08T07:54:31.707Z,1031.524846268
2023-02-08T07:55:31.739Z,1031.4232549039998
2023-02-08T07:56:31.732Z,1031.524846268
2023-02-08T07:57:31.744Z,1031.4232549039998
2023-02-08T07:58:31.744Z,1031.728028996
2023-02-08T07:59:31.701Z,1031.524846268
2023-02-08T08:00:31.855Z,1031.728028996
2023-02-08T08:01:31.803Z,1031.4232549039998
2023-02-08T08:02:31.719Z,1031.728028996
2023-02-08T08:03:31.708Z,1031.524846268
2023-02-08T08:04:31.708Z,1031.82962036
2023-02-08T08:05:31.752Z,1031.4232549039998
2023-02-08T08:06:31.709Z,1031.6264376319998
2023-02-08T08:07:31.753Z,1031.6264376319998
2023-02-08T08:08:31.705Z,1031.6264376319998
2023-02-08T08:09:31.764Z,1031.524846268
2023-02-08T08:10:31.709Z,1031.728028996
2023-02-08T08:11:31.710Z,1031.4232549039998
2023-02-08T08:12:31.702Z,1031.6264376319998
2023-02-08T08:13:31.758Z,1031.6264376319998
2023-02-08T08:14:31.735Z,1031.4232549039998
2023-02-08T08:15:31.770Z,1031.6264376319998
2023-02-08T08:16:31.742Z,1031.524846268
2023-02-08T08:17:31.737Z,1031.524846268
2023-02-08T08:18:31.765Z,1031.4232549039998
2023-02-08T08:19:31.684Z,1031.524846268
2023-02-08T08:20:31.722Z,1031.6264376319998
2023-02-08T08:21:31.727Z,1031.4232549039998
2023-02-08T08:22:31.710Z,1031.524846268
2023-02-08T08:23:31.677Z,1031.728028996
2023-02-08T08:24:31.707Z,1031.728028996
2023-02-08T08:25:31.691Z,1031.728028996
2023-02-08T08:26:31.742Z,1031.6264376319998
2023-02-08T08:27:31.722Z,1031.931211724
2023-02-08T08:28:31.900Z,1031.728028996
2023-02-08T08:29:31.779Z,1031.524846268
2023-02-08T08:30:31.804Z,1031.728028996
2023-02-08T08:31:31.784Z,1031.6264376319998
2023-02-08T08:32:31.721Z,1031.728028996
2023-02-08T08:33:31.719Z,1031.6264376319998
2023-02-08T08:34:31.723Z,1031.728028996
2023-02-08T08:35:31.689Z,1031.728028996
2023-02-08T08:36:31.736Z,1031.6264376319998
2023-02-08T08:37:31.742Z,1031.32166354
2023-02-08T08:38:31.759Z,1031.6264376319998
2023-02-08T08:39:31.714Z,1031.6264376319998
2023-02-08T08:40:31.696Z,1031.6264376319998
2023-02-08T08:41:31.661Z,1031.524846268
2023-02-08T08:42:31.789Z,1031.524846268
2023-02-08T08:43:31.745Z,1031.524846268
2023-02-08T08:44:31.696Z,1031.728028996
2023-02-08T08:45:31.701Z,1031.728028996
2023-02-08T08:46:31.763Z,1031.728028996
2023-02-08T08:47:31.733Z,1031.82962036
2023-02-08T08:48:31.692Z,1031.931211724
2023-02-08T08:49:31.753Z,1031.728028996
2023-02-08T08:50:31.705Z,1031.82962036
2023-02-08T08:51:31.729Z,1031.931211724
2023-02-08T08:52:31.706Z,1031.728028996
2023-02-08T08:53:31.714Z,1031.728028996
2023-02-08T08:54:31.697Z,1031.931211724
2023-02-08T08:55:31.789Z,1031.728028996
2023-02-08T08:56:31.752Z,1031.524846268
2023-02-08T08:57:31.731Z,1031.82962036
2023-02-08T08:58:31.729Z,1031.82962036
2023-02-08T08:59:31.745Z,1031.728028996
2023-02-08T09:00:31.748Z,1031.6264376319998
2023-02-08T09:01:34.415Z,1031.728028996
2023-02-08T09:02:31.697Z,1031.524846268
2023-02-08T09:03:31.792Z,1031.6264376319998
2023-02-08T09:04:31.764Z,1031.6264376319998
2023-02-08T09:05:31.665Z,1031.82962036
2023-02-08T09:06:31.709Z,1032.032803088
2023-02-08T09:07:31.691Z,1031.728028996
2023-02-08T09:08:31.687Z,1031.6264376319998
2023-02-08T09:09:31.729Z,1031.82962036
2023-02-08T09:10:31.835Z,1031.82962036
2023-02-08T09:11:31.715Z,1031.524846268
2023-02-08T09:12:31.701Z,1031.728028996
2023-02-08T09:13:31.703Z,1031.728028996
2023-02-08T09:14:31.687Z,1031.6264376319998
2023-02-08T09:15:31.696Z,1031.728028996
2023-02-08T09:16:31.851Z,1031.728028996
2023-02-08T09:17:31.742Z,1031.6264376319998
2023-02-08T09:18:31.920Z,1031.4232549039998
2023-02-08T09:19:31.718Z,1031.6264376319998
2023-02-08T09:20:31.692Z,1031.6264376319998
2023-02-08T09:21:31.725Z,1031.6264376319998
2023-02-08T09:22:31.913Z,1031.728028996
2023-02-08T09:23:31.737Z,1031.82962036
2023-02-08T09:24:31.674Z,1031.931211724
2023-02-08T09:25:31.707Z,1031.931211724
2023-02-08T09:26:31.692Z,1031.728028996
2023-02-08T09:27:31.710Z,1031.728028996
2023-02-08T09:28:31.771Z,1031.728028996
2023-02-08T09:29:31.729Z,1031.82962036
2023-02-08T09:30:31.775Z,1031.524846268
2023-02-08T09:31:31.818Z,1031.728028996
2023-02-08T09:32:31.722Z,1031.82962036
2023-02-08T09:33:31.815Z,1031.931211724
2023-02-08T09:34:31.668Z,1031.82962036
2023-02-08T09:35:31.680Z,1031.82962036
2023-02-08T09:36:31.780Z,1031.6264376319998
2023-02-08T09:37:47.490Z,1031.82962036
2023-02-08T09:38:33.741Z,1032.032803088
2023-02-08T09:39:31.698Z,1031.82962036
2023-02-08T09:40:31.716Z,1031.82962036
2023-02-08T09:41:31.692Z,1031.82962036
2023-02-08T09:42:31.744Z,1032.032803088
2023-02-08T09:43:31.699Z,1031.931211724
2023-02-08T09:44:31.732Z,1031.728028996